sensor_id;sensor_type;location;lat;lon;timestamp;temperature;humidity
16271;DHT22;8243;49.048;8.396;2022-08-18T00:02:04;20.50;99.90
16271;DHT22;8243;49.048;8.396;2022-08-18T00:04:31;20.50;98.40
16271;DHT22;8243;49.048;8.396;2022-08-18T00:06:57;20.50;95.90
16271;DHT22;8243;49.048;8.396;2022-08-18T00:09:23;20.50;96.40
16271;DHT22;8243;49.048;8.396;2022-08-18T00:11:49;20.50;96.10
16271;DHT22;8243;49.048;8.396;2022-08-18T00:14:17;20.40;96.50
16271;DHT22;8243;49.048;8.396;2022-08-18T00:16:43;20.40;96.40
16271;DHT22;8243;49.048;8.396;2022-08-18T00:19:09;20.40;95.30
16271;DHT22;8243;49.048;8.396;2022-08-18T00:21:35;20.40;95.90
16271;DHT22;8243;49.048;8.396;2022-08-18T00:24:01;20.30;96.20
16271;DHT22;8243;49.048;8.396;2022-08-18T00:26:27;20.40;96.40
16271;DHT22;8243;49.048;8.396;2022-08-18T00:28:53;20.30;96.30
16271;DHT22;8243;49.048;8.396;2022-08-18T00:31:18;20.20;97.40
16271;DHT22;8243;49.048;8.396;2022-08-18T00:33:44;20.20;97.60
16271;DHT22;8243;49.048;8.396;2022-08-18T00:36:10;20.20;99.10
16271;DHT22;8243;49.048;8.396;2022-08-18T00:38:37;20.20;99.00
16271;DHT22;8243;49.048;8.396;2022-08-18T00:41:03;20.20;99.90
16271;DHT22;8243;49.048;8.396;2022-08-18T00:43:48;20.10;99.90
16271;DHT22;8243;49.048;8.396;2022-08-18T00:46:22;20.10;99.90
16271;DHT22;8243;49.048;8.396;2022-08-18T00:48:48;20.10;99.90
16271;DHT22;8243;49.048;8.396;2022-08-18T00:56:30;19.80;99.90
16271;DHT22;8243;49.048;8.396;2022-08-18T00:59:02;19.90;99.90
16271;DHT22;8243;49.048;8.396;2022-08-18T01:01:31;19.80;99.90
16271;DHT22;8243;49.048;8.396;2022-08-18T01:04:04;19.80;99.90
16271;DHT22;8243;49.048;8.396;2022-08-18T01:06:32;19.70;99.90
16271;DHT22;8243;49.048;8.396;2022-08-18T01:09:01;19.70;99.90
16271;DHT22;8243;49.048;8.396;2022-08-18T01:11:28;19.70;99.90
16271;DHT22;8243;49.048;8.396;2022-08-18T01:13:53;19.70;99.90
16271;DHT22;8243;49.048;8.396;2022-08-18T01:16:19;19.60;99.90
16271;DHT22;8243;49.048;8.396;2022-08-18T01:19:05;19.60;99.90
16271;DHT22;8243;49.048;8.396;2022-08-18T01:21:58;19.60;99.90
16271;DHT22;8243;49.048;8.396;2022-08-18T01:24:32;19.50;99.90
16271;DHT22;8243;49.048;8.396;2022-08-18T01:27:29;19.40;99.90
16271;DHT22;8243;49.048;8.396;2022-08-18T01:30:00;19.40;99.90
16271;DHT22;8243;49.048;8.396;2022-08-18T01:32:26;19.40;99.90
16271;DHT22;8243;49.048;8.396;2022-08-18T01:34:52;19.30;99.90
16271;DHT22;8243;49.048;8.396;2022-08-18T01:37:21;19.20;99.90
16271;DHT22;8243;49.048;8.396;2022-08-18T01:39:47;19.20;99.90
16271;DHT22;8243;49.048;8.396;2022-08-18T01:42:15;19.20;99.90
16271;DHT22;8243;49.048;8.396;2022-08-18T01:44:47;19.20;99.90
16271;DHT22;8243;49.048;8.396;2022-08-18T01:47:15;19.20;99.90
16271;DHT22;8243;49.048;8.396;2022-08-18T01:49:43;19.20;99.90
16271;DHT22;8243;49.048;8.396;2022-08-18T01:52:12;19.10;99.90
16271;DHT22;8243;49.048;8.396;2022-08-18T01:54:38;19.00;99.90
16271;DHT22;8243;49.048;8.396;2022-08-18T01:57:05;18.90;99.90
16271;DHT22;8243;49.048;8.396;2022-08-18T01:59:30;18.80;99.90
16271;DHT22;8243;49.048;8.396;2022-08-18T02:01:56;18.70;99.90
16271;DHT22;8243;49.048;8.396;2022-08-18T02:04:27;18.60;99.90
16271;DHT22;8243;49.048;8.396;2022-08-18T02:06:57;18.60;99.90
16271;DHT22;8243;49.048;8.396;2022-08-18T02:09:23;18.60;99.90
16271;DHT22;8243;49.048;8.396;2022-08-18T02:11:49;18.60;99.90
16271;DHT22;8243;49.048;8.396;2022-08-18T02:14:14;18.50;99.90
16271;DHT22;8243;49.048;8.396;2022-08-18T02:16:40;18.60;99.90
16271;DHT22;8243;49.048;8.396;2022-08-18T02:19:05;18.60;99.90
16271;DHT22;8243;49.048;8.396;2022-08-18T02:21:31;18.50;99.90
16271;DHT22;8243;49.048;8.396;2022-08-18T02:23:56;18.50;99.90
16271;DHT22;8243;49.048;8.396;2022-08-18T02:26:22;18.50;99.90
16271;DHT22;8243;49.048;8.396;2022-08-18T02:28:48;18.60;99.90
16271;DHT22;8243;49.048;8.396;2022-08-18T02:31:20;18.60;99.90
16271;DHT22;8243;49.048;8.396;2022-08-18T02:33:46;18.60;99.90
16271;DHT22;8243;49.048;8.396;2022-08-18T02:36:13;18.60;99.90
16271;DHT22;8243;49.048;8.396;2022-08-18T02:38:40;18.60;99.90
16271;DHT22;8243;49.048;8.396;2022-08-18T02:41:09;18.60;99.90
16271;DHT22;8243;49.048;8.396;2022-08-18T02:43:37;18.60;99.90
16271;DHT22;8243;49.048;8.396;2022-08-18T02:46:03;18.50;99.90
16271;DHT22;8243;49.048;8.396;2022-08-18T02:48:30;18.50;99.90
16271;DHT22;8243;49.048;8.396;2022-08-18T02:53:29;18.40;99.90
16271;DHT22;8243;49.048;8.396;2022-08-18T02:56:02;18.50;99.90
16271;DHT22;8243;49.048;8.396;2022-08-18T02:58:29;18.40;99.90
16271;DHT22;8243;49.048;8.396;2022-08-18T03:00:55;18.40;99.90
16271;DHT22;8243;49.048;8.396;2022-08-18T03:03:21;18.50;99.90
16271;DHT22;8243;49.048;8.396;2022-08-18T03:05:46;18.50;99.90
16271;DHT22;8243;49.048;8.396;2022-08-18T03:08:12;18.60;99.90
16271;DHT22;8243;49.048;8.396;2022-08-18T03:10:37;18.60;99.90
16271;DHT22;8243;49.048;8.396;2022-08-18T03:13:03;18.60;99.90
16271;DHT22;8243;49.048;8.396;2022-08-18T03:15:29;18.60;99.90
16271;DHT22;8243;49.048;8.396;2022-08-18T03:17:55;18.60;99.90
16271;DHT22;8243;49.048;8.396;2022-08-18T03:20:20;18.60;99.90
16271;DHT22;8243;49.048;8.396;2022-08-18T03:22:46;18.70;99.90
16271;DHT22;8243;49.048;8.396;2022-08-18T03:25:11;18.70;99.90
16271;DHT22;8243;49.048;8.396;2022-08-18T03:27:37;18.80;99.90
16271;DHT22;8243;49.048;8.396;2022-08-18T03:30:03;18.80;99.90
16271;DHT22;8243;49.048;8.396;2022-08-18T03:32:29;18.80;99.90
16271;DHT22;8243;49.048;8.396;2022-08-18T03:34:54;18.80;99.90
16271;DHT22;8243;49.048;8.396;2022-08-18T03:37:20;18.80;99.90
16271;DHT22;8243;49.048;8.396;2022-08-18T03:39:45;18.80;99.90
16271;DHT22;8243;49.048;8.396;2022-08-18T03:42:11;18.80;99.90
16271;DHT22;8243;49.048;8.396;2022-08-18T03:44:37;18.80;99.90
16271;DHT22;8243;49.048;8.396;2022-08-18T03:47:08;18.80;99.90
16271;DHT22;8243;49.048;8.396;2022-08-18T03:49:34;18.80;99.90
16271;DHT22;8243;49.048;8.396;2022-08-18T03:52:00;18.90;99.90
16271;DHT22;8243;49.048;8.396;2022-08-18T03:54:26;18.90;99.90
16271;DHT22;8243;49.048;8.396;2022-08-18T03:56:51;19.00;99.90
16271;DHT22;8243;49.048;8.396;2022-08-18T03:59:22;18.90;99.90
16271;DHT22;8243;49.048;8.396;2022-08-18T04:01:52;18.90;99.90
16271;DHT22;8243;49.048;8.396;2022-08-18T04:04:23;18.90;99.90
16271;DHT22;8243;49.048;8.396;2022-08-18T04:06:52;18.90;99.90
16271;DHT22;8243;49.048;8.396;2022-08-18T04:09:24;18.90;99.90
16271;DHT22;8243;49.048;8.396;2022-08-18T04:11:50;18.90;99.90
16271;DHT22;8243;49.048;8.396;2022-08-18T04:14:19;19.00;99.90
16271;DHT22;8243;49.048;8.396;2022-08-18T04:16:45;19.00;99.90
16271;DHT22;8243;49.048;8.396;2022-08-18T04:19:13;19.00;99.90
16271;DHT22;8243;49.048;8.396;2022-08-18T04:21:42;19.00;99.90
16271;DHT22;8243;49.048;8.396;2022-08-18T04:24:10;19.00;99.90
16271;DHT22;8243;49.048;8.396;2022-08-18T04:26:40;19.00;99.90
16271;DHT22;8243;49.048;8.396;2022-08-18T04:29:06;18.90;99.90
16271;DHT22;8243;49.048;8.396;2022-08-18T04:31:32;19.00;99.90
16271;DHT22;8243;49.048;8.396;2022-08-18T04:33:59;19.00;99.90
16271;DHT22;8243;49.048;8.396;2022-08-18T04:36:26;19.00;99.90
16271;DHT22;8243;49.048;8.396;2022-08-18T04:38:52;19.10;99.90
16271;DHT22;8243;49.048;8.396;2022-08-18T04:41:18;19.20;99.90
16271;DHT22;8243;49.048;8.396;2022-08-18T04:43:44;19.20;99.90
16271;DHT22;8243;49.048;8.396;2022-08-18T04:46:09;19.20;99.90
16271;DHT22;8243;49.048;8.396;2022-08-18T04:48:38;19.20;99.90
16271;DHT22;8243;49.048;8.396;2022-08-18T04:51:13;19.20;99.90
16271;DHT22;8243;49.048;8.396;2022-08-18T04:53:39;19.20;99.90
16271;DHT22;8243;49.048;8.396;2022-08-18T04:56:29;19.20;99.90
16271;DHT22;8243;49.048;8.396;2022-08-18T04:59:07;19.20;99.90
16271;DHT22;8243;49.048;8.396;2022-08-18T05:01:37;19.30;99.90
16271;DHT22;8243;49.048;8.396;2022-08-18T05:04:04;19.30;99.90
16271;DHT22;8243;49.048;8.396;2022-08-18T05:06:29;19.30;99.90
16271;DHT22;8243;49.048;8.396;2022-08-18T05:08:58;19.30;99.90
16271;DHT22;8243;49.048;8.396;2022-08-18T05:11:26;19.30;99.90
16271;DHT22;8243;49.048;8.396;2022-08-18T05:13:55;19.30;99.90
16271;DHT22;8243;49.048;8.396;2022-08-18T05:16:22;19.30;99.90
16271;DHT22;8243;49.048;8.396;2022-08-18T05:18:47;19.30;99.90
16271;DHT22;8243;49.048;8.396;2022-08-18T05:21:13;19.30;99.90
16271;DHT22;8243;49.048;8.396;2022-08-18T05:23:44;19.40;99.90
16271;DHT22;8243;49.048;8.396;2022-08-18T05:26:11;19.40;99.90
16271;DHT22;8243;49.048;8.396;2022-08-18T05:28:38;19.40;99.90
16271;DHT22;8243;49.048;8.396;2022-08-18T05:31:19;19.40;99.90
16271;DHT22;8243;49.048;8.396;2022-08-18T05:33:46;19.50;99.90
16271;DHT22;8243;49.048;8.396;2022-08-18T05:36:42;19.50;99.90
16271;DHT22;8243;49.048;8.396;2022-08-18T05:41:48;19.50;99.90
16271;DHT22;8243;49.048;8.396;2022-08-18T05:44:21;19.60;99.90
16271;DHT22;8243;49.048;8.396;2022-08-18T05:46:50;19.70;99.90
16271;DHT22;8243;49.048;8.396;2022-08-18T05:49:20;19.70;99.90
16271;DHT22;8243;49.048;8.396;2022-08-18T05:51:50;19.80;99.90
16271;DHT22;8243;49.048;8.396;2022-08-18T05:54:18;19.80;99.90
16271;DHT22;8243;49.048;8.396;2022-08-18T05:57:13;19.90;99.90
16271;DHT22;8243;49.048;8.396;2022-08-18T05:59:42;20.00;99.90
16271;DHT22;8243;49.048;8.396;2022-08-18T06:02:25;20.00;99.90
16271;DHT22;8243;49.048;8.396;2022-08-18T06:04:55;20.10;99.90
16271;DHT22;8243;49.048;8.396;2022-08-18T06:07:35;20.10;99.90
16271;DHT22;8243;49.048;8.396;2022-08-18T06:10:03;20.20;99.90
16271;DHT22;8243;49.048;8.396;2022-08-18T06:12:32;20.10;99.90
16271;DHT22;8243;49.048;8.396;2022-08-18T06:20:53;20.50;99.90
16271;DHT22;8243;49.048;8.396;2022-08-18T06:26:22;20.60;99.90
16271;DHT22;8243;49.048;8.396;2022-08-18T06:34:17;20.50;99.90
16271;DHT22;8243;49.048;8.396;2022-08-18T06:36:54;20.60;99.90
16271;DHT22;8243;49.048;8.396;2022-08-18T06:41:51;20.60;99.90
16271;DHT22;8243;49.048;8.396;2022-08-18T06:44:45;20.70;99.90
16271;DHT22;8243;49.048;8.396;2022-08-18T06:49:49;20.90;99.90
16271;DHT22;8243;49.048;8.396;2022-08-18T06:53:01;21.00;99.90
16271;DHT22;8243;49.048;8.396;2022-08-18T06:55:42;21.20;99.90
16271;DHT22;8243;49.048;8.396;2022-08-18T07:00:41;21.10;99.90
16271;DHT22;8243;49.048;8.396;2022-08-18T07:03:16;21.20;99.90
16271;DHT22;8243;49.048;8.396;2022-08-18T07:08:40;21.10;99.90
16271;DHT22;8243;49.048;8.396;2022-08-18T07:11:24;21.10;99.90
16271;DHT22;8243;49.048;8.396;2022-08-18T07:13:53;21.00;99.90
16271;DHT22;8243;49.048;8.396;2022-08-18T07:19:04;20.90;99.90
16271;DHT22;8243;49.048;8.396;2022-08-18T07:21:32;20.90;99.90
16271;DHT22;8243;49.048;8.396;2022-08-18T07:24:06;20.90;99.90
16271;DHT22;8243;49.048;8.396;2022-08-18T07:29:26;20.90;99.90
16271;DHT22;8243;49.048;8.396;2022-08-18T07:31:53;20.90;99.90
16271;DHT22;8243;49.048;8.396;2022-08-18T07:34:39;20.90;99.90
16271;DHT22;8243;49.048;8.396;2022-08-18T07:37:07;20.80;99.90
16271;DHT22;8243;49.048;8.396;2022-08-18T07:39:48;20.60;99.90
16271;DHT22;8243;49.048;8.396;2022-08-18T07:45:24;20.50;99.90
16271;DHT22;8243;49.048;8.396;2022-08-18T07:50:56;20.40;99.90
16271;DHT22;8243;49.048;8.396;2022-08-18T07:53:52;20.50;99.90
16271;DHT22;8243;49.048;8.396;2022-08-18T07:56:37;20.40;99.90
16271;DHT22;8243;49.048;8.396;2022-08-18T08:04:16;20.30;99.90
16271;DHT22;8243;49.048;8.396;2022-08-18T08:06:48;20.40;99.90
16271;DHT22;8243;49.048;8.396;2022-08-18T08:12:17;20.30;99.90
16271;DHT22;8243;49.048;8.396;2022-08-18T08:14:48;20.30;99.90
16271;DHT22;8243;49.048;8.396;2022-08-18T08:25:21;20.20;99.90
16271;DHT22;8243;49.048;8.396;2022-08-18T08:30:43;20.20;99.90
16271;DHT22;8243;49.048;8.396;2022-08-18T08:33:26;20.20;99.90
16271;DHT22;8243;49.048;8.396;2022-08-18T08:36:06;20.20;99.90
16271;DHT22;8243;49.048;8.396;2022-08-18T08:38:42;20.30;99.90
16271;DHT22;8243;49.048;8.396;2022-08-18T08:44:38;20.10;99.90
16271;DHT22;8243;49.048;8.396;2022-08-18T08:46:44;20.20;99.90
16271;DHT22;8243;49.048;8.396;2022-08-18T08:49:28;20.40;99.90
16271;DHT22;8243;49.048;8.396;2022-08-18T08:52:09;20.60;99.90
16271;DHT22;8243;49.048;8.396;2022-08-18T08:57:28;21.30;99.90
16271;DHT22;8243;49.048;8.396;2022-08-18T08:59:57;21.50;99.90
16271;DHT22;8243;49.048;8.396;2022-08-18T09:05:17;21.80;99.90
16271;DHT22;8243;49.048;8.396;2022-08-18T09:10:58;21.90;99.90
16271;DHT22;8243;49.048;8.396;2022-08-18T09:19:06;22.30;99.90
16271;DHT22;8243;49.048;8.396;2022-08-18T09:21:52;22.70;99.90
16271;DHT22;8243;49.048;8.396;2022-08-18T09:24:24;22.80;99.90
16271;DHT22;8243;49.048;8.396;2022-08-18T09:29:55;23.00;99.90
16271;DHT22;8243;49.048;8.396;2022-08-18T09:37:59;23.80;99.90
16271;DHT22;8243;49.048;8.396;2022-08-18T09:41:13;23.90;99.90
16271;DHT22;8243;49.048;8.396;2022-08-18T09:51:51;23.10;99.90
16271;DHT22;8243;49.048;8.396;2022-08-18T09:54:47;23.30;99.90
16271;DHT22;8243;49.048;8.396;2022-08-18T09:57:18;23.50;99.90
16271;DHT22;8243;49.048;8.396;2022-08-18T10:02:12;23.60;99.90
16271;DHT22;8243;49.048;8.396;2022-08-18T10:07:56;23.40;99.90
16271;DHT22;8243;49.048;8.396;2022-08-18T10:10:51;23.00;99.90
16271;DHT22;8243;49.048;8.396;2022-08-18T10:13:32;22.60;99.90
16271;DHT22;8243;49.048;8.396;2022-08-18T10:24:35;22.60;99.90
16271;DHT22;8243;49.048;8.396;2022-08-18T10:27:05;22.70;99.90
16271;DHT22;8243;49.048;8.396;2022-08-18T10:29:44;22.80;99.90
16271;DHT22;8243;49.048;8.396;2022-08-18T10:37:54;22.90;99.90
16271;DHT22;8243;49.048;8.396;2022-08-18T10:42:37;23.40;99.90
16271;DHT22;8243;49.048;8.396;2022-08-18T10:50:25;24.00;94.70
16271;DHT22;8243;49.048;8.396;2022-08-18T10:55:49;24.90;87.90
16271;DHT22;8243;49.048;8.396;2022-08-18T11:01:00;25.00;71.30
16271;DHT22;8243;49.048;8.396;2022-08-18T11:06:10;24.10;86.20
16271;DHT22;8243;49.048;8.396;2022-08-18T11:08:46;24.60;86.60
16271;DHT22;8243;49.048;8.396;2022-08-18T11:11:13;25.10;78.70
16271;DHT22;8243;49.048;8.396;2022-08-18T11:16:42;25.90;71.30
16271;DHT22;8243;49.048;8.396;2022-08-18T11:19:13;26.10;63.50
16271;DHT22;8243;49.048;8.396;2022-08-18T11:21:47;25.60;66.60
16271;DHT22;8243;49.048;8.396;2022-08-18T11:24:24;25.20;67.00
16271;DHT22;8243;49.048;8.396;2022-08-18T11:27:03;25.40;66.00
16271;DHT22;8243;49.048;8.396;2022-08-18T11:29:33;25.90;64.00
16271;DHT22;8243;49.048;8.396;2022-08-18T11:32:23;26.00;65.80
16271;DHT22;8243;49.048;8.396;2022-08-18T11:35:03;26.70;63.30
16271;DHT22;8243;49.048;8.396;2022-08-18T11:43:11;26.20;63.30
16271;DHT22;8243;49.048;8.396;2022-08-18T11:45:56;26.20;56.90
16271;DHT22;8243;49.048;8.396;2022-08-18T11:48:32;25.80;57.50
16271;DHT22;8243;49.048;8.396;2022-08-18T11:51:02;25.80;58.90
16271;DHT22;8243;49.048;8.396;2022-08-18T11:53:41;26.20;57.50
16271;DHT22;8243;49.048;8.396;2022-08-18T11:59:03;25.90;58.70
16271;DHT22;8243;49.048;8.396;2022-08-18T12:06:59;26.00;53.90
16271;DHT22;8243;49.048;8.396;2022-08-18T12:12:15;25.80;57.20
16271;DHT22;8243;49.048;8.396;2022-08-18T12:17:25;25.70;53.70
16271;DHT22;8243;49.048;8.396;2022-08-18T12:19:51;25.20;57.00
16271;DHT22;8243;49.048;8.396;2022-08-18T12:22:21;25.20;58.60
16271;DHT22;8243;49.048;8.396;2022-08-18T12:24:48;25.00;60.20
16271;DHT22;8243;49.048;8.396;2022-08-18T12:27:18;25.30;61.40
16271;DHT22;8243;49.048;8.396;2022-08-18T12:29:44;25.80;56.70
16271;DHT22;8243;49.048;8.396;2022-08-18T12:32:10;26.10;55.50
16271;DHT22;8243;49.048;8.396;2022-08-18T12:34:35;26.20;52.80
16271;DHT22;8243;49.048;8.396;2022-08-18T12:37:01;26.00;55.50
16271;DHT22;8243;49.048;8.396;2022-08-18T12:39:29;26.20;54.60
16271;DHT22;8243;49.048;8.396;2022-08-18T12:41:55;26.20;48.70
16271;DHT22;8243;49.048;8.396;2022-08-18T12:44:21;26.00;48.70
16271;DHT22;8243;49.048;8.396;2022-08-18T12:46:48;26.30;48.30
16271;DHT22;8243;49.048;8.396;2022-08-18T12:49:16;26.60;45.90
16271;DHT22;8243;49.048;8.396;2022-08-18T12:51:42;26.40;47.50
16271;DHT22;8243;49.048;8.396;2022-08-18T12:54:08;26.70;48.60
16271;DHT22;8243;49.048;8.396;2022-08-18T12:56:33;27.20;44.70
16271;DHT22;8243;49.048;8.396;2022-08-18T12:59:03;27.00;40.50
16271;DHT22;8243;49.048;8.396;2022-08-18T13:01:28;26.50;42.50
16271;DHT22;8243;49.048;8.396;2022-08-18T13:03:55;26.50;41.70
16271;DHT22;8243;49.048;8.396;2022-08-18T13:06:24;26.60;41.50
16271;DHT22;8243;49.048;8.396;2022-08-18T13:08:50;26.80;41.10
16271;DHT22;8243;49.048;8.396;2022-08-18T13:11:20;27.50;39.80
16271;DHT22;8243;49.048;8.396;2022-08-18T13:13:46;27.70;36.70
16271;DHT22;8243;49.048;8.396;2022-08-18T13:16:12;28.10;34.40
16271;DHT22;8243;49.048;8.396;2022-08-18T13:18:39;27.20;32.40
16271;DHT22;8243;49.048;8.396;2022-08-18T13:21:09;26.90;33.30
16271;DHT22;8243;49.048;8.396;2022-08-18T13:23:35;26.90;32.90
16271;DHT22;8243;49.048;8.396;2022-08-18T13:26:03;26.80;33.60
16271;DHT22;8243;49.048;8.396;2022-08-18T13:28:31;26.60;34.50
16271;DHT22;8243;49.048;8.396;2022-08-18T13:30:57;26.60;33.50
16271;DHT22;8243;49.048;8.396;2022-08-18T13:33:22;26.70;35.40
16271;DHT22;8243;49.048;8.396;2022-08-18T13:35:49;27.10;34.00
16271;DHT22;8243;49.048;8.396;2022-08-18T13:38:15;27.60;31.10
16271;DHT22;8243;49.048;8.396;2022-08-18T13:40:45;27.80;30.70
16271;DHT22;8243;49.048;8.396;2022-08-18T13:43:13;27.80;30.50
16271;DHT22;8243;49.048;8.396;2022-08-18T13:45:40;27.90;30.00
16271;DHT22;8243;49.048;8.396;2022-08-18T13:48:09;27.50;30.50
16271;DHT22;8243;49.048;8.396;2022-08-18T13:50:35;27.00;31.00
16271;DHT22;8243;49.048;8.396;2022-08-18T13:53:05;27.00;33.00
16271;DHT22;8243;49.048;8.396;2022-08-18T13:55:30;27.40;30.70
16271;DHT22;8243;49.048;8.396;2022-08-18T13:57:56;27.10;33.20
16271;DHT22;8243;49.048;8.396;2022-08-18T14:00:22;27.10;32.60
16271;DHT22;8243;49.048;8.396;2022-08-18T14:02:49;27.10;33.10
16271;DHT22;8243;49.048;8.396;2022-08-18T14:05:18;27.10;32.30
16271;DHT22;8243;49.048;8.396;2022-08-18T14:07:44;27.10;34.00
16271;DHT22;8243;49.048;8.396;2022-08-18T14:10:11;27.40;32.30
16271;DHT22;8243;49.048;8.396;2022-08-18T14:12:38;27.30;33.40
16271;DHT22;8243;49.048;8.396;2022-08-18T14:15:07;27.40;31.80
16271;DHT22;8243;49.048;8.396;2022-08-18T14:17:35;27.50;32.00
16271;DHT22;8243;49.048;8.396;2022-08-18T14:20:02;27.60;30.10
16271;DHT22;8243;49.048;8.396;2022-08-18T14:22:54;27.80;29.90
16271;DHT22;8243;49.048;8.396;2022-08-18T14:25:39;27.50;30.40
16271;DHT22;8243;49.048;8.396;2022-08-18T14:28:23;27.00;30.60
16271;DHT22;8243;49.048;8.396;2022-08-18T14:30:49;26.90;32.80
16271;DHT22;8243;49.048;8.396;2022-08-18T14:33:18;26.90;32.90
16271;DHT22;8243;49.048;8.396;2022-08-18T14:35:44;27.40;31.50
16271;DHT22;8243;49.048;8.396;2022-08-18T14:38:09;27.50;30.00
16271;DHT22;8243;49.048;8.396;2022-08-18T14:40:36;26.90;31.40
16271;DHT22;8243;49.048;8.396;2022-08-18T14:43:03;26.80;32.80
16271;DHT22;8243;49.048;8.396;2022-08-18T14:45:28;27.00;31.80
16271;DHT22;8243;49.048;8.396;2022-08-18T14:47:55;27.40;30.40
16271;DHT22;8243;49.048;8.396;2022-08-18T14:50:21;27.40;30.00
16271;DHT22;8243;49.048;8.396;2022-08-18T14:52:47;27.40;29.70
16271;DHT22;8243;49.048;8.396;2022-08-18T14:55:13;27.20;30.30
16271;DHT22;8243;49.048;8.396;2022-08-18T14:57:40;27.10;31.10
16271;DHT22;8243;49.048;8.396;2022-08-18T15:00:09;27.00;31.30
16271;DHT22;8243;49.048;8.396;2022-08-18T15:02:37;27.00;30.50
16271;DHT22;8243;49.048;8.396;2022-08-18T15:05:07;27.10;31.70
16271;DHT22;8243;49.048;8.396;2022-08-18T15:07:34;27.10;30.90
16271;DHT22;8243;49.048;8.396;2022-08-18T15:10:03;27.00;31.60
16271;DHT22;8243;49.048;8.396;2022-08-18T15:12:29;26.90;31.30
16271;DHT22;8243;49.048;8.396;2022-08-18T15:14:54;26.90;31.60
16271;DHT22;8243;49.048;8.396;2022-08-18T15:17:20;26.90;30.70
16271;DHT22;8243;49.048;8.396;2022-08-18T15:19:46;26.70;31.10
16271;DHT22;8243;49.048;8.396;2022-08-18T15:22:12;26.60;31.60
16271;DHT22;8243;49.048;8.396;2022-08-18T15:24:56;26.40;32.50
16271;DHT22;8243;49.048;8.396;2022-08-18T15:27:41;26.50;33.70
16271;DHT22;8243;49.048;8.396;2022-08-18T15:30:10;26.50;31.90
16271;DHT22;8243;49.048;8.396;2022-08-18T15:32:36;26.50;32.10
16271;DHT22;8243;49.048;8.396;2022-08-18T15:35:02;26.60;32.00
16271;DHT22;8243;49.048;8.396;2022-08-18T15:37:28;26.90;31.00
16271;DHT22;8243;49.048;8.396;2022-08-18T15:40:09;26.70;29.80
16271;DHT22;8243;49.048;8.396;2022-08-18T15:42:38;26.50;31.00
16271;DHT22;8243;49.048;8.396;2022-08-18T15:45:06;26.80;30.60
16271;DHT22;8243;49.048;8.396;2022-08-18T15:47:32;26.70;29.80
16271;DHT22;8243;49.048;8.396;2022-08-18T15:49:59;26.80;29.80
16271;DHT22;8243;49.048;8.396;2022-08-18T15:55:02;26.60;29.50
16271;DHT22;8243;49.048;8.396;2022-08-18T15:57:28;26.30;31.30
16271;DHT22;8243;49.048;8.396;2022-08-18T15:59:55;26.40;31.80
16271;DHT22;8243;49.048;8.396;2022-08-18T16:02:21;26.60;31.00
16271;DHT22;8243;49.048;8.396;2022-08-18T16:04:48;26.50;31.70
16271;DHT22;8243;49.048;8.396;2022-08-18T16:07:14;26.50;31.20
16271;DHT22;8243;49.048;8.396;2022-08-18T16:09:39;26.50;31.70
16271;DHT22;8243;49.048;8.396;2022-08-18T16:12:08;26.50;31.70
16271;DHT22;8243;49.048;8.396;2022-08-18T16:14:39;26.40;30.30
16271;DHT22;8243;49.048;8.396;2022-08-18T16:17:04;26.30;32.60
16271;DHT22;8243;49.048;8.396;2022-08-18T16:19:30;26.30;32.50
16271;DHT22;8243;49.048;8.396;2022-08-18T16:21:56;26.30;32.10
16271;DHT22;8243;49.048;8.396;2022-08-18T16:24:21;26.20;31.10
16271;DHT22;8243;49.048;8.396;2022-08-18T16:26:48;26.20;30.30
16271;DHT22;8243;49.048;8.396;2022-08-18T16:29:16;26.00;30.00
16271;DHT22;8243;49.048;8.396;2022-08-18T16:31:42;25.90;29.90
16271;DHT22;8243;49.048;8.396;2022-08-18T16:34:07;25.80;29.40
16271;DHT22;8243;49.048;8.396;2022-08-18T16:36:33;25.70;29.90
16271;DHT22;8243;49.048;8.396;2022-08-18T16:39:00;25.70;29.90
16271;DHT22;8243;49.048;8.396;2022-08-18T16:41:26;25.60;29.50
16271;DHT22;8243;49.048;8.396;2022-08-18T16:43:52;25.60;30.00
16271;DHT22;8243;49.048;8.396;2022-08-18T16:46:23;25.60;29.50
16271;DHT22;8243;49.048;8.396;2022-08-18T16:48:51;25.60;29.10
16271;DHT22;8243;49.048;8.396;2022-08-18T16:51:18;25.50;30.00
16271;DHT22;8243;49.048;8.396;2022-08-18T16:53:46;25.60;29.60
16271;DHT22;8243;49.048;8.396;2022-08-18T16:56:20;25.60;29.90
16271;DHT22;8243;49.048;8.396;2022-08-18T16:58:46;25.70;30.00
16271;DHT22;8243;49.048;8.396;2022-08-18T17:01:31;25.60;30.00
16271;DHT22;8243;49.048;8.396;2022-08-18T17:04:21;25.50;29.90
16271;DHT22;8243;49.048;8.396;2022-08-18T17:06:48;25.50;30.70
16271;DHT22;8243;49.048;8.396;2022-08-18T17:09:14;25.40;30.80
16271;DHT22;8243;49.048;8.396;2022-08-18T17:11:40;25.30;30.90
16271;DHT22;8243;49.048;8.396;2022-08-18T17:14:06;25.20;31.30
16271;DHT22;8243;49.048;8.396;2022-08-18T17:16:33;25.20;31.60
16271;DHT22;8243;49.048;8.396;2022-08-18T17:18:59;25.10;31.90
16271;DHT22;8243;49.048;8.396;2022-08-18T17:21:27;25.00;32.20
16271;DHT22;8243;49.048;8.396;2022-08-18T17:23:54;25.00;31.90
16271;DHT22;8243;49.048;8.396;2022-08-18T17:26:36;25.00;32.50
16271;DHT22;8243;49.048;8.396;2022-08-18T17:29:12;25.00;31.80
16271;DHT22;8243;49.048;8.396;2022-08-18T17:31:56;24.80;31.70
16271;DHT22;8243;49.048;8.396;2022-08-18T17:34:35;24.80;32.00
16271;DHT22;8243;49.048;8.396;2022-08-18T17:37:01;24.80;31.80
16271;DHT22;8243;49.048;8.396;2022-08-18T17:39:34;24.80;32.60
16271;DHT22;8243;49.048;8.396;2022-08-18T17:42:01;24.70;32.80
16271;DHT22;8243;49.048;8.396;2022-08-18T17:44:58;24.70;32.70
16271;DHT22;8243;49.048;8.396;2022-08-18T17:47:37;24.70;33.00
16271;DHT22;8243;49.048;8.396;2022-08-18T17:50:18;24.60;34.10
16271;DHT22;8243;49.048;8.396;2022-08-18T17:53:18;24.60;33.90
16271;DHT22;8243;49.048;8.396;2022-08-18T17:56:00;24.60;34.60
16271;DHT22;8243;49.048;8.396;2022-08-18T17:58:35;24.50;34.70
16271;DHT22;8243;49.048;8.396;2022-08-18T18:01:08;24.50;34.70
16271;DHT22;8243;49.048;8.396;2022-08-18T18:03:34;24.40;35.50
16271;DHT22;8243;49.048;8.396;2022-08-18T18:06:17;24.30;35.70
16271;DHT22;8243;49.048;8.396;2022-08-18T18:08:54;24.20;36.30
16271;DHT22;8243;49.048;8.396;2022-08-18T18:11:32;24.20;37.00
16271;DHT22;8243;49.048;8.396;2022-08-18T18:14:00;24.20;37.00
16271;DHT22;8243;49.048;8.396;2022-08-18T18:19:27;24.10;37.00
16271;DHT22;8243;49.048;8.396;2022-08-18T18:22:05;24.00;37.50
16271;DHT22;8243;49.048;8.396;2022-08-18T18:24:34;24.00;38.90
16271;DHT22;8243;49.048;8.396;2022-08-18T18:27:01;23.90;39.40
16271;DHT22;8243;49.048;8.396;2022-08-18T18:29:28;23.80;39.80
16271;DHT22;8243;49.048;8.396;2022-08-18T18:32:22;23.80;40.60
16271;DHT22;8243;49.048;8.396;2022-08-18T18:35:09;23.70;41.20
16271;DHT22;8243;49.048;8.396;2022-08-18T18:37:49;23.60;42.10
16271;DHT22;8243;49.048;8.396;2022-08-18T18:40:35;23.60;42.30
16271;DHT22;8243;49.048;8.396;2022-08-18T18:43:23;23.60;43.00
16271;DHT22;8243;49.048;8.396;2022-08-18T18:49:25;23.40;45.40
16271;DHT22;8243;49.048;8.396;2022-08-18T18:54:44;23.10;48.10
16271;DHT22;8243;49.048;8.396;2022-08-18T19:00:28;23.00;49.30